Time;durP1;ratioP1;P1;durP2;ratioP2;P2;SDS_P1;SDS_P2;PMS_P1;PMS_P2;Temp;Humidity;BMP_temperature;BMP_pressure;BME280_temperature;BME280_humidity;BME280_pressure;Samples;Min_cycle;Max_cycle;Signal;HPM_P1;HPM_P2
2023/05/11 04:22:32;;;;;;;4.22;2.10;;;;;;;10.45;100.00;100056.88;5089541;28;20328;-65
2023/05/11 04:24:58;;;;;;;4.20;1.75;;;;;;;10.45;100.00;100056.06;5087952;28;20040;-65
2023/05/11 04:27:23;;;;;;;2.40;1.38;;;;;;;10.48;100.00;100061.03;5089050;28;20127;-65
2023/05/11 04:29:49;;;;;;;4.53;2.45;;;;;;;10.51;100.00;100058.03;5088063;28;20039;-64
2023/05/11 04:32:16;;;;;;;3.53;2.33;;;;;;;10.54;100.00;100057.66;5087938;28;20503;-65
2023/05/11 04:34:41;;;;;;;7.22;2.10;;;;;;;10.58;100.00;100057.13;5088023;28;20131;-66
2023/05/11 04:37:08;;;;;;;3.88;2.30;;;;;;;10.55;100.00;100053.97;5087694;28;20075;-64
2023/05/11 04:39:35;;;;;;;6.35;2.90;;;;;;;10.60;100.00;100062.28;5089278;28;20509;-66
2023/05/11 04:42:00;;;;;;;5.63;2.50;;;;;;;10.60;100.00;100065.75;5087815;28;20075;-64
2023/05/11 04:44:27;;;;;;;4.45;2.47;;;;;;;10.62;100.00;100056.75;5087793;28;20064;-62
2023/05/11 04:46:54;;;;;;;7.57;3.47;;;;;;;10.56;100.00;100059.16;5087852;28;20075;-64
2023/05/11 04:49:20;;;;;;;6.05;2.55;;;;;;;10.67;100.00;100060.56;5087642;28;20044;-62
2023/05/11 04:51:45;;;;;;;5.13;2.72;;;;;;;10.65;100.00;100061.75;5086777;28;20128;-62
2023/05/11 04:54:11;;;;;;;6.00;2.22;;;;;;;10.63;100.00;100064.59;5092561;28;20031;-63
2023/05/11 04:56:39;;;;;;;4.47;2.40;;;;;;;10.73;100.00;100067.84;5092842;28;20381;-64
2023/05/11 04:59:08;;;;;;;5.72;2.72;;;;;;;10.64;100.00;100068.09;5090271;28;20074;-64
2023/05/11 05:01:34;;;;;;;4.82;2.50;;;;;;;10.67;100.00;100067.72;5089232;28;20064;-64
2023/05/11 05:04:01;;;;;;;3.90;2.38;;;;;;;10.66;100.00;100063.41;5088781;28;20040;-64
2023/05/11 05:06:26;;;;;;;5.75;3.00;;;;;;;10.65;100.00;100064.41;5087408;28;20420;-63
2023/05/11 05:08:52;;;;;;;3.90;2.60;;;;;;;10.68;100.00;100059.53;5088290;28;20085;-62
2023/05/11 05:11:18;;;;;;;4.05;2.65;;;;;;;10.73;100.00;100067.00;5082825;28;20032;-63
2023/05/11 05:13:44;;;;;;;5.43;2.72;;;;;;;10.70;100.00;100075.38;5086762;28;20082;-62
2023/05/11 05:16:09;;;;;;;4.88;2.85;;;;;;;10.73;100.00;100072.34;5087356;28;20432;-60
2023/05/11 05:18:35;;;;;;;4.28;2.60;;;;;;;10.79;100.00;100075.09;5088080;28;20113;-61
2023/05/11 05:21:01;;;;;;;5.47;2.97;;;;;;;10.78;100.00;100065.47;5086968;28;20024;-61
2023/05/11 05:23:26;;;;;;;6.22;2.67;;;;;;;10.78;100.00;100076.13;5088412;28;20112;-63
2023/05/11 05:25:52;;;;;;;4.25;2.40;;;;;;;10.79;100.00;100087.59;5086936;28;20548;-64
2023/05/11 05:28:18;;;;;;;3.00;2.15;;;;;;;10.80;100.00;100075.94;5086688;28;20127;-63
2023/05/11 05:30:44;;;;;;;3.15;2.30;;;;;;;10.84;100.00;100078.06;5088331;28;20036;-65
2023/05/11 05:33:10;;;;;;;5.80;2.10;;;;;;;10.80;100.00;100078.59;5078866;28;20504;-63
2023/05/11 05:35:35;;;;;;;3.92;2.38;;;;;;;10.81;100.00;100088.25;5055420;28;20036;-63
2023/05/11 05:38:01;;;;;;;3.33;1.88;;;;;;;10.90;100.00;100087.19;5073060;28;20062;-63
2023/05/11 05:40:27;;;;;;;3.85;1.98;;;;;;;10.94;100.00;100085.81;5074513;28;20086;-62
2023/05/11 05:42:54;;;;;;;3.95;2.17;;;;;;;10.87;100.00;100082.19;5073102;28;20482;-64
2023/05/11 05:45:22;;;;;;;4.30;2.30;;;;;;;10.95;100.00;100090.13;5073156;28;20064;-64
2023/05/11 05:47:50;;;;;;;4.20;2.30;;;;;;;10.92;100.00;100087.84;5072797;28;20062;-63
2023/05/11 05:50:15;;;;;;;4.43;2.55;;;;;;;10.99;100.00;100090.59;5073145;28;20484;-63
2023/05/11 05:52:41;;;;;;;3.55;2.30;;;;;;;11.04;100.00;100089.06;5073106;28;20048;-64
2023/05/11 05:55:07;;;;;;;3.78;2.35;;;;;;;10.98;100.00;100084.44;5072936;28;20040;-63
2023/05/11 05:57:33;;;;;;;3.45;2.30;;;;;;;11.09;100.00;100092.03;5073822;28;20041;-65
2023/05/11 05:59:59;;;;;;;3.90;2.20;;;;;;;11.11;100.00;100084.66;5073121;28;20036;-63
2023/05/11 06:02:24;;;;;;;6.60;2.78;;;;;;;11.04;100.00;100088.25;5074126;28;20485;-62
2023/05/11 06:04:50;;;;;;;3.35;2.08;;;;;;;11.18;100.00;100097.28;5074269;28;20485;-64
2023/05/11 06:07:15;;;;;;;3.40;2.17;;;;;;;11.09;100.00;100093.88;5073690;28;20040;-65
2023/05/11 06:09:41;;;;;;;3.40;2.00;;;;;;;11.11;100.00;100097.16;5072654;28;20035;-63
2023/05/11 06:12:08;;;;;;;4.03;2.55;;;;;;;11.17;100.00;100098.28;5072497;28;20064;-65
2023/05/11 06:14:36;;;;;;;4.57;2.70;;;;;;;11.17;100.00;100092.97;5072696;28;20036;-63
2023/05/11 06:17:02;;;;;;;3.00;2.10;;;;;;;11.23;100.00;100086.91;5072300;28;20114;-66
2023/05/11 06:19:28;;;;;;;3.83;2.33;;;;;;;11.28;100.00;100089.84;5073932;28;20115;-63
2023/05/11 06:21:53;;;;;;;3.35;2.20;;;;;;;11.34;100.00;100092.59;5072359;28;20449;-64
2023/05/11 06:24:19;;;;;;;4.63;2.60;;;;;;;11.27;100.00;100093.50;5072475;28;20032;-64
2023/05/11 06:26:45;;;;;;;3.55;2.50;;;;;;;11.29;100.00;100096.84;5072226;28;20512;-63
2023/05/11 06:29:12;;;;;;;4.18;2.92;;;;;;;11.38;100.00;100096.56;5072169;28;20127;-64
2023/05/11 06:31:38;;;;;;;3.85;2.92;;;;;;;11.45;100.00;100091.34;5073679;28;20107;-64
2023/05/11 06:34:04;;;;;;;3.10;2.30;;;;;;;11.50;100.00;100093.47;5072255;28;20040;-59
2023/05/11 06:36:31;;;;;;;4.55;2.92;;;;;;;11.46;100.00;100090.31;5072226;28;20436;-61
2023/05/11 06:38:56;;;;;;;3.20;2.25;;;;;;;11.56;100.00;100092.75;5071827;28;20036;-60
2023/05/11 06:41:22;;;;;;;3.60;2.00;;;;;;;11.62;100.00;100095.50;5071981;28;20063;-60
2023/05/11 06:43:47;;;;;;;5.18;2.25;;;;;;;11.65;100.00;100091.63;5071450;28;20067;-60
2023/05/11 06:46:25;;;;;;;5.55;2.60;;;;;;;11.69;100.00;100088.41;5071936;28;20044;-63
2023/05/11 06:48:50;;;;;;;4.45;2.38;;;;;;;11.64;100.00;100092.63;5072781;28;20138;-65
2023/05/11 06:51:16;;;;;;;3.85;2.20;;;;;;;11.72;100.00;100086.38;5071838;28;20028;-63
2023/05/11 06:53:42;;;;;;;5.37;2.23;;;;;;;11.80;100.00;100089.81;5073083;28;20040;-63
2023/05/11 06:56:08;;;;;;;3.22;2.30;;;;;;;11.85;100.00;100087.41;5072978;28;20444;-61
2023/05/11 06:58:33;;;;;;;3.72;1.77;;;;;;;11.89;100.00;100085.22;5072371;28;20116;-62
2023/05/11 07:00:59;;;;;;;7.30;2.35;;;;;;;11.99;100.00;100087.59;5071046;28;20408;-63
2023/05/11 07:03:24;;;;;;;2.42;1.70;;;;;;;12.05;100.00;100089.50;5072989;28;20044;-62
2023/05/11 07:05:49;;;;;;;3.17;2.10;;;;;;;12.11;100.00;100094.09;5069287;28;20053;-61
2023/05/11 07:08:15;;;;;;;4.80;2.45;;;;;;;12.14;100.00;100097.25;5059977;28;20494;-62
2023/05/11 07:10:40;;;;;;;3.53;2.33;;;;;;;12.17;100.00;100096.03;5062300;28;20062;-62
2023/05/11 07:13:06;;;;;;;6.18;2.03;;;;;;;12.28;100.00;100097.41;5061187;28;20043;-62
2023/05/11 07:15:32;;;;;;;5.07;2.15;;;;;;;12.35;100.00;100098.31;5062842;28;20043;-64
2023/05/11 07:17:57;;;;;;;3.50;2.33;;;;;;;12.42;100.00;100108.03;5060968;28;20111;-63
2023/05/11 07:20:23;;;;;;;3.40;2.17;;;;;;;12.49;100.00;100103.59;5068196;28;20048;-64
2023/05/11 07:22:48;;;;;;;4.00;2.05;;;;;;;12.64;100.00;100100.03;5072590;28;20127;-64
2023/05/11 07:25:14;;;;;;;3.13;1.90;;;;;;;12.65;100.00;100104.34;5072148;28;20076;-64
2023/05/11 07:27:39;;;;;;;3.17;2.17;;;;;;;12.65;100.00;100099.88;5061952;28;20036;-64
2023/05/11 07:30:05;;;;;;;3.38;2.15;;;;;;;12.70;100.00;100112.63;5066910;28;20045;-63
2023/05/11 07:32:31;;;;;;;3.33;2.00;;;;;;;12.72;100.00;100110.63;5072496;28;20032;-62
2023/05/11 07:34:56;;;;;;;3.67;2.30;;;;;;;12.69;100.00;100101.13;5072389;28;20420;-63
2023/05/11 07:37:22;;;;;;;8.30;2.97;;;;;;;12.67;99.70;100097.00;5071846;28;20036;-62
2023/05/11 07:39:47;;;;;;;4.25;2.30;;;;;;;12.62;98.88;100116.28;5072225;28;20036;-61
2023/05/11 07:42:13;;;;;;;3.60;2.60;;;;;;;12.71;98.92;100115.16;5072151;28;20562;-60
2023/05/11 07:44:38;;;;;;;4.82;2.55;;;;;;;12.64;98.88;100113.41;5072284;28;20044;-63
2023/05/11 07:47:04;;;;;;;4.53;2.60;;;;;;;12.70;98.42;100123.34;5071840;28;20048;-64
2023/05/11 07:49:29;;;;;;;3.63;2.20;;;;;;;12.69;99.66;100111.81;5072059;28;20042;-61
2023/05/11 07:51:54;;;;;;;3.60;2.03;;;;;;;12.75;99.94;100110.22;5072088;28;20040;-62
2023/05/11 07:54:20;;;;;;;6.22;2.70;;;;;;;12.79;100.00;100108.84;5072028;28;20024;-63
2023/05/11 07:56:45;;;;;;;3.15;1.92;;;;;;;12.84;100.00;100114.41;5071665;28;20051;-61
2023/05/11 07:59:11;;;;;;;3.25;2.40;;;;;;;12.84;100.00;100110.91;5071770;28;20111;-61
2023/05/11 08:01:36;;;;;;;3.42;2.17;;;;;;;12.84;98.61;100113.59;5071893;28;20500;-63
2023/05/11 08:04:02;;;;;;;3.20;2.17;;;;;;;12.83;99.36;100104.75;5072057;28;20040;-61
2023/05/11 08:06:27;;;;;;;3.55;2.17;;;;;;;12.75;100.00;100116.41;5072013;28;20480;-61
2023/05/11 08:08:53;;;;;;;2.63;1.83;;;;;;;12.76;100.00;100104.69;5071203;28;20032;-64
2023/05/11 08:11:18;;;;;;;3.55;2.05;;;;;;;12.74;99.78;100109.41;5072014;28;20041;-61
2023/05/11 08:13:43;;;;;;;3.13;2.00;;;;;;;12.82;99.79;100115.66;5071998;28;20314;-62
2023/05/11 08:16:09;;;;;;;6.65;2.47;;;;;;;12.89;100.00;100116.53;5071834;28;20044;-64
2023/05/11 08:18:34;;;;;;;3.65;2.10;;;;;;;12.96;99.45;100117.41;5071605;28;20124;-64
2023/05/11 08:21:00;;;;;;;3.92;2.30;;;;;;;13.04;100.00;100109.28;5071529;28;20481;-63
2023/05/11 08:23:25;;;;;;;3.10;1.92;;;;;;;13.07;100.00;100110.75;5071579;28;20051;-64
2023/05/11 08:25:53;;;;;;;3.20;2.15;;;;;;;13.05;98.18;100108.25;5070668;28;20302;-64
2023/05/11 08:28:19;;;;;;;6.57;2.20;;;;;;;13.16;98.41;100112.25;5071358;28;20051;-65
2023/05/11 08:30:45;;;;;;;2.45;2.03;;;;;;;13.18;96.51;100111.03;5071769;28;20041;-64
2023/05/11 08:33:11;;;;;;;3.63;2.00;;;;;;;13.28;96.35;100113.41;5071717;28;20058;-63
2023/05/11 08:35:40;;;;;;;4.13;2.40;;;;;;;13.21;95.12;100118.69;5071357;28;20496;-63
2023/05/11 08:38:05;;;;;;;3.85;2.67;;;;;;;13.25;94.46;100119.16;5071304;28;20036;-63
2023/05/11 08:40:31;;;;;;;4.60;2.22;;;;;;;13.32;94.43;100114.69;5071613;28;20047;-61
2023/05/11 08:42:59;;;;;;;3.25;1.98;;;;;;;13.33;97.37;100120.84;5071682;28;20040;-62
2023/05/11 08:45:25;;;;;;;;;;;;;;;13.35;93.99;100116.94;5072002;28;20044;-61
2023/05/11 08:47:52;;;;;;;3.78;2.45;;;;;;;13.31;94.56;100118.38;5071320;28;19916;-62
2023/05/11 08:50:17;;;;;;;3.90;2.33;;;;;;;13.23;95.36;100119.31;5071511;28;20509;-64
2023/05/11 08:52:43;;;;;;;2.85;2.08;;;;;;;13.29;95.82;100118.56;5071554;28;20074;-63
2023/05/11 08:55:09;;;;;;;4.07;2.40;;;;;;;13.34;97.11;100114.47;5071372;28;20125;-62
2023/05/11 08:57:35;;;;;;;4.20;2.38;;;;;;;13.35;95.41;100118.81;5071298;28;20446;-63
2023/05/11 09:00:01;;;;;;;3.30;2.00;;;;;;;13.28;95.03;100116.91;5071446;28;20036;-63
2023/05/11 09:02:27;;;;;;;3.85;2.13;;;;;;;13.14;96.47;100114.28;5071403;28;20043;-61
2023/05/11 09:04:53;;;;;;;5.05;2.47;;;;;;;13.16;96.11;100107.72;5071368;28;20468;-63
2023/05/11 09:07:20;;;;;;;3.00;1.98;;;;;;;13.14;95.23;100109.78;5071411;28;20043;-63
2023/05/11 09:09:46;;;;;;;2.75;2.22;;;;;;;13.20;96.07;100114.38;5075124;28;20041;-65
2023/05/11 09:12:12;;;;;;;2.78;2.15;;;;;;;13.15;95.57;100115.94;5074899;28;20086;-64
2023/05/11 09:14:37;;;;;;;6.53;2.40;;;;;;;13.22;95.71;100125.69;5075110;28;20040;-61
2023/05/11 09:17:03;;;;;;;3.25;2.25;;;;;;;13.24;96.85;100120.19;5074715;28;20101;-60
2023/05/11 09:19:29;;;;;;;3.13;2.03;;;;;;;13.27;95.72;100120.59;5074815;28;20067;-63
2023/05/11 09:21:54;;;;;;;3.70;2.10;;;;;;;13.38;96.54;100116.59;5074758;28;20128;-64
2023/05/11 09:24:20;;;;;;;3.25;2.60;;;;;;;13.41;98.92;100110.00;5074841;28;20119;-64
2023/05/11 09:26:46;;;;;;;4.50;2.25;;;;;;;13.50;95.91;100103.50;5074641;28;20036;-62
2023/05/11 09:29:11;;;;;;;2.38;1.92;;;;;;;13.45;95.67;100105.94;5074650;28;20064;-62
2023/05/11 09:31:41;;;;;;;3.80;2.30;;;;;;;13.47;94.60;100107.38;5074729;28;20444;-62
2023/05/11 09:34:12;;;;;;;3.75;2.13;;;;;;;13.56;94.09;100108.91;5074615;28;20036;-65
2023/05/11 09:36:38;;;;;;;3.28;2.00;;;;;;;13.62;94.76;100106.44;5074493;28;20045;-63
2023/05/11 09:39:03;;;;;;;3.45;2.05;;;;;;;13.62;94.11;100115.28;5074363;28;20025;-64
2023/05/11 09:41:30;;;;;;;3.13;2.50;;;;;;;13.66;93.09;100103.19;5074598;28;20060;-65
2023/05/11 09:44:07;;;;;;;2.40;1.73;;;;;;;13.73;92.20;100108.56;5074445;28;20370;-65
2023/05/11 09:46:33;;;;;;;;;;;;;;;13.74;90.94;100116.41;5074835;28;20044;-64
2023/05/11 09:49:03;;;;;;;2.85;1.90;;;;;;;13.80;93.42;100117.47;5074150;28;20341;-66
2023/05/11 09:51:33;;;;;;;4.38;2.45;;;;;;;13.91;92.87;100111.56;5074162;28;20037;-64
2023/05/11 09:54:00;;;;;;;4.53;2.42;;;;;;;13.78;91.98;100100.78;5074289;28;20047;-64
2023/05/11 09:56:47;;;;;;;2.80;1.80;;;;;;;13.76;90.64;100106.34;5074160;28;20036;-64
2023/05/11 09:59:35;;;;;;;3.72;2.42;;;;;;;13.71;90.72;100108.78;5073891;28;20037;-63
2023/05/11 10:02:17;;;;;;;3.05;2.30;;;;;;;13.77;92.11;100105.31;5074336;28;20020;-63
2023/05/11 10:04:42;;;;;;;3.25;2.40;;;;;;;13.80;90.99;100106.75;5074299;28;20489;-64
2023/05/11 10:07:07;;;;;;;4.07;2.30;;;;;;;13.78;91.14;100090.06;5073722;28;20115;-64
2023/05/11 10:09:33;;;;;;;3.08;2.17;;;;;;;13.97;93.70;100107.28;5074088;28;20036;-64
2023/05/11 10:12:00;;;;;;;3.15;1.95;;;;;;;14.09;93.08;100103.81;5074082;28;20508;-63
2023/05/11 10:14:28;;;;;;;3.50;2.20;;;;;;;14.17;91.92;100104.69;5073946;28;20458;-64
2023/05/11 10:16:56;;;;;;;2.38;1.80;;;;;;;14.17;90.81;100100.16;5073767;28;20105;-62
2023/05/11 10:19:22;;;;;;;3.05;1.90;;;;;;;14.21;90.38;100101.38;5073621;28;20401;-64
2023/05/11 10:21:50;;;;;;;3.35;2.15;;;;;;;14.23;90.76;100099.34;5074006;28;20028;-64
2023/05/11 10:24:16;;;;;;;2.90;1.90;;;;;;;14.28;88.36;100098.72;5073740;28;20036;-64
2023/05/11 10:26:42;;;;;;;3.38;2.30;;;;;;;14.36;87.93;100096.72;5073764;28;20110;-63
2023/05/11 10:29:08;;;;;;;3.50;2.00;;;;;;;14.23;86.07;100082.44;5073599;28;20666;-62
2023/05/11 10:31:35;;;;;;;3.33;2.13;;;;;;;14.39;86.04;100096.28;5073581;28;20599;-63
2023/05/11 10:34:02;;;;;;;3.88;2.47;;;;;;;14.46;88.89;100090.13;5073696;28;20442;-61
2023/05/11 10:36:29;;;;;;;2.47;1.85;;;;;;;14.54;87.50;100098.00;5073521;28;20074;-64
2023/05/11 10:38:54;;;;;;;3.85;2.42;;;;;;;14.56;88.41;100085.25;5073849;28;20044;-65
2023/05/11 10:41:52;;;;;;;4.45;2.28;;;;;;;14.64;84.24;100087.75;5074080;28;20036;-66
2023/05/11 10:44:46;;;;;;;3.60;2.15;;;;;;;14.77;86.69;100081.56;5065251;28;20041;-64
2023/05/11 10:47:15;;;;;;;4.85;1.98;;;;;;;14.91;86.14;100083.22;5063713;28;20513;-65
2023/05/11 10:50:02;;;;;;;3.10;2.00;;;;;;;14.97;85.51;100078.91;5073331;28;20036;-64
2023/05/11 10:52:37;;;;;;;3.80;1.98;;;;;;;15.05;83.19;100079.53;5073276;28;20033;-63
2023/05/11 10:55:27;;;;;;;4.15;2.42;;;;;;;15.03;81.58;100072.72;5073264;28;20116;-64
2023/05/11 10:58:07;;;;;;;3.00;1.85;;;;;;;15.25;83.61;100081.38;5072893;28;20036;-64
2023/05/11 11:01:10;;;;;;;2.95;2.13;;;;;;;15.07;86.28;100076.66;5073174;28;20497;-65
2023/05/11 11:03:36;;;;;;;2.75;2.15;;;;;;;15.16;83.27;100076.22;5072910;28;20051;-64
2023/05/11 11:06:02;;;;;;;2.65;1.80;;;;;;;15.12;86.52;100082.19;5072920;28;20040;-64
2023/05/11 11:08:28;;;;;;;2.92;1.90;;;;;;;15.23;83.54;100083.44;5072631;28;20122;-65
2023/05/11 11:10:55;;;;;;;4.15;1.88;;;;;;;15.34;83.92;100074.78;5072794;28;20040;-65
2023/05/11 11:13:22;;;;;;;2.35;1.85;;;;;;;15.16;82.85;100073.53;5071557;28;20397;-64
2023/05/11 11:15:53;;;;;;;3.10;2.20;;;;;;;15.36;81.09;100072.69;5072753;28;20040;-64
2023/05/11 11:18:20;;;;;;;2.67;1.80;;;;;;;15.29;81.53;100070.03;5072423;28;20043;-65
2023/05/11 11:20:47;;;;;;;3.75;1.80;;;;;;;15.45;80.08;100077.66;5072661;28;20086;-64
2023/05/11 11:23:48;;;;;;;2.95;1.98;;;;;;;15.53;76.82;100067.72;5072601;28;20037;-64
2023/05/11 11:26:17;;;;;;;3.20;1.80;;;;;;;15.46;78.63;100068.56;5072556;28;20532;-65
2023/05/11 11:29:04;;;;;;;2.83;1.80;;;;;;;15.62;79.72;100069.16;5072289;28;20089;-65
2023/05/11 11:31:32;;;;;;;1.98;1.70;;;;;;;15.64;83.05;100064.41;5072017;28;20041;-64
2023/05/11 11:34:18;;;;;;;2.72;1.42;;;;;;;15.68;79.74;100065.66;5072479;28;20134;-65
2023/05/11 11:37:00;;;;;;;2.15;1.73;;;;;;;15.83;80.05;100050.09;5072170;28;20035;-65
2023/05/11 11:39:45;;;;;;;3.42;1.90;;;;;;;15.83;79.90;100055.47;5072336;28;20037;-65
2023/05/11 11:42:35;;;;;;;2.40;1.77;;;;;;;15.83;80.16;100052.78;5072323;28;20120;-64
2023/05/11 11:45:23;;;;;;;2.92;1.77;;;;;;;15.84;82.63;100048.22;5072417;28;20119;-65
2023/05/11 11:48:05;;;;;;;7.30;2.30;;;;;;;15.86;78.30;100047.00;5072064;28;20032;-66
2023/05/11 11:50:32;;;;;;;3.47;1.48;;;;;;;15.82;75.39;100047.63;5072177;28;20393;-66
2023/05/11 11:52:58;;;;;;;3.60;1.70;;;;;;;15.78;75.88;100058.00;5072312;28;20462;-64
2023/05/11 11:55:47;;;;;;;3.60;2.13;;;;;;;15.96;78.10;100050.03;5072098;28;20115;-63
2023/05/11 11:58:41;;;;;;;2.85;1.67;;;;;;;15.99;76.65;100043.44;5071813;28;20390;-64
2023/05/11 12:01:08;;;;;;;3.22;2.15;;;;;;;16.04;76.14;100045.47;5072051;28;20076;-64
2023/05/11 12:03:37;;;;;;;2.90;1.90;;;;;;;16.22;76.85;100045.59;5072065;28;20036;-64
2023/05/11 12:06:06;;;;;;;2.58;1.98;;;;;;;16.13;76.89;100041.50;5071954;28;20032;-62
2023/05/11 12:08:32;;;;;;;3.30;2.05;;;;;;;16.13;74.65;100045.03;5071376;28;20059;-63
2023/05/11 12:10:59;;;;;;;2.38;1.77;;;;;;;16.32;75.41;100040.59;5057072;28;20433;-65
2023/05/11 12:13:25;;;;;;;3.05;1.90;;;;;;;16.38;71.83;100039.72;5071999;28;20032;-64
2023/05/11 12:16:21;;;;;;;2.55;1.85;;;;;;;16.48;70.21;100034.69;5071837;28;20028;-64
2023/05/11 12:18:55;;;;;;;2.75;1.80;;;;;;;16.74;71.01;100032.88;5062743;28;20052;-65
2023/05/11 12:21:23;;;;;;;1.90;1.55;;;;;;;16.95;75.51;100034.38;5071762;28;20043;-64
2023/05/11 12:23:53;;;;;;;2.33;1.63;;;;;;;17.00;71.78;100035.34;5072117;28;20400;-64
2023/05/11 12:26:23;;;;;;;2.45;1.58;;;;;;;16.93;72.20;100031.91;5071779;28;20040;-64
2023/05/11 12:28:49;;;;;;;2.85;1.90;;;;;;;17.01;68.24;100015.47;5071448;28;20068;-64
2023/05/11 12:31:18;;;;;;;2.20;1.92;;;;;;;16.94;69.07;100022.78;5071533;28;20049;-65
2023/05/11 12:33:48;;;;;;;2.05;1.85;;;;;;;16.99;68.10;100014.88;5071641;28;20481;-63
2023/05/11 12:36:15;;;;;;;2.72;2.00;;;;;;;16.90;68.11;100015.41;5071786;28;20032;-65
2023/05/11 12:38:45;;;;;;;2.93;1.90;;;;;;;16.66;67.91;100009.75;5071727;28;20044;-63
2023/05/11 12:41:17;;;;;;;2.47;1.90;;;;;;;16.67;67.88;100016.75;5071667;28;20278;-64
2023/05/11 12:43:43;;;;;;;2.20;1.83;;;;;;;16.90;68.10;100016.22;5074429;28;20129;-64
2023/05/11 12:46:08;;;;;;;2.33;2.00;;;;;;;17.04;68.90;100009.66;5075568;28;20482;-63
2023/05/11 12:48:34;;;;;;;1.90;1.60;;;;;;;17.21;65.78;100014.47;5075261;28;20047;-63
2023/05/11 12:50:59;;;;;;;2.65;1.92;;;;;;;17.42;64.30;100008.69;5075581;28;20047;-64
2023/05/11 12:53:25;;;;;;;2.72;2.00;;;;;;;17.51;64.37;100007.31;5075529;28;20380;-66
2023/05/11 12:55:57;;;;;;;2.53;1.80;;;;;;;17.64;63.95;100004.47;5075363;28;20036;-64
2023/05/11 12:58:23;;;;;;;2.05;1.65;;;;;;;17.44;62.59;100003.88;5075006;28;20041;-63
2023/05/11 13:00:56;;;;;;;3.15;2.05;;;;;;;16.88;66.19;99998.63;5070375;28;20066;-64
2023/05/11 13:03:22;;;;;;;1.90;1.50;;;;;;;17.23;68.41;99991.69;5060667;28;20041;-64
2023/05/11 13:05:48;;;;;;;3.10;1.88;;;;;;;17.20;66.65;99988.59;5060452;28;20114;-63
2023/05/11 13:08:15;;;;;;;2.17;1.60;;;;;;;17.36;68.86;99988.03;5054950;28;20450;-63
2023/05/11 13:10:40;;;;;;;2.83;1.67;;;;;;;17.33;66.72;99991.16;5055099;28;20382;-64
2023/05/11 13:13:06;;;;;;;3.30;1.55;;;;;;;17.36;64.50;99982.66;5055243;28;20047;-64
2023/05/11 13:15:32;;;;;;;2.78;1.73;;;;;;;17.30;64.20;99978.16;5055147;28;20446;-63
2023/05/11 13:18:01;;;;;;;1.90;1.70;;;;;;;17.41;63.68;99979.25;5054717;28;20037;-63
2023/05/11 13:20:32;;;;;;;1.70;1.50;;;;;;;17.29;65.13;99982.72;5054769;28;20363;-63
2023/05/11 13:23:08;;;;;;;2.78;1.95;;;;;;;17.00;66.88;99976.16;5054990;28;20051;-64
2023/05/11 13:25:53;;;;;;;2.85;2.03;;;;;;;17.07;64.94;99976.91;5054816;28;20041;-63
2023/05/11 13:28:21;;;;;;;2.13;1.52;;;;;;;17.07;64.33;99973.41;5054638;28;20450;-64
2023/05/11 13:30:47;;;;;;;3.50;1.60;;;;;;;16.96;64.54;99969.59;5054858;28;20159;-65
2023/05/11 13:33:12;;;;;;;3.65;1.80;;;;;;;17.06;65.95;99967.22;5054820;28;20021;-64
2023/05/11 13:35:40;;;;;;;2.70;1.58;;;;;;;17.17;66.17;99965.66;5053365;28;20037;-64
2023/05/11 13:38:05;;;;;;;2.15;1.65;;;;;;;17.34;64.94;99963.19;5054424;28;20029;-64
2023/05/11 13:40:31;;;;;;;3.50;1.70;;;;;;;17.57;63.64;99963.34;5054772;28;20059;-63
2023/05/11 13:42:56;;;;;;;2.35;2.08;;;;;;;17.59;62.35;99961.22;5054719;28;20374;-64
2023/05/11 13:45:22;;;;;;;2.28;1.85;;;;;;;17.49;64.13;99958.25;5054540;28;20037;-64
2023/05/11 13:47:47;;;;;;;3.05;1.65;;;;;;;17.36;65.27;99959.25;5054249;28;20080;-64
2023/05/11 13:50:14;;;;;;;2.63;1.60;;;;;;;17.43;70.10;99945.69;5054502;28;20039;-64
2023/05/11 13:52:40;;;;;;;2.30;1.80;;;;;;;17.45;67.21;99956.25;5054669;28;20094;-65
2023/05/11 13:55:06;;;;;;;1.90;1.50;;;;;;;17.64;64.36;99952.50;5053947;28;20036;-64
2023/05/11 13:57:31;;;;;;;2.88;1.52;;;;;;;17.52;63.23;99949.72;5054021;28;20122;-64
2023/05/11 13:59:57;;;;;;;1.80;1.50;;;;;;;17.63;62.57;99948.97;5054354;28;20060;-63
2023/05/11 14:02:22;;;;;;;1.55;1.40;;;;;;;17.26;65.16;99937.41;5054282;28;20474;-65
2023/05/11 14:04:47;;;;;;;3.75;1.50;;;;;;;17.36;64.46;99945.78;5072722;28;20032;-64
2023/05/11 14:07:14;;;;;;;1.75;1.48;;;;;;;17.47;62.86;99941.50;5073801;28;20044;-66
2023/05/11 14:09:40;;;;;;;1.77;1.27;;;;;;;17.30;62.13;99946.69;5074019;28;20082;-64
2023/05/11 14:12:05;;;;;;;1.88;1.48;;;;;;;17.43;63.28;99947.56;5073934;28;20040;-65
2023/05/11 14:14:31;;;;;;;1.88;1.50;;;;;;;17.31;66.09;99937.56;5074034;28;20055;-66
2023/05/11 14:16:57;;;;;;;3.78;1.80;;;;;;;17.46;65.27;99937.16;5073574;28;20356;-64
2023/05/11 14:19:22;;;;;;;3.45;1.60;;;;;;;17.61;61.61;99937.63;5073823;28;20121;-64
2023/05/11 14:21:48;;;;;;;1.27;1.17;;;;;;;17.34;64.87;99929.03;5073788;28;20040;-64
2023/05/11 14:24:13;;;;;;;1.45;1.30;;;;;;;17.39;63.07;99932.91;5073834;28;20039;-65
2023/05/11 14:26:40;;;;;;;2.65;1.50;;;;;;;17.39;63.25;99925.66;5073613;28;20106;-65
2023/05/11 14:29:05;;;;;;;1.52;1.40;;;;;;;17.65;61.89;99929.88;5073443;28;20025;-65
2023/05/11 14:31:31;;;;;;;2.30;1.45;;;;;;;17.61;61.32;99921.47;5073549;28;20047;-65
2023/05/11 14:33:56;;;;;;;1.70;1.20;;;;;;;17.63;61.82;99926.59;5073676;28;20050;-65
2023/05/11 14:36:22;;;;;;;2.70;1.40;;;;;;;17.71;59.69;99928.16;5072324;28;20046;-65
2023/05/11 14:38:47;;;;;;;1.85;1.40;;;;;;;17.63;60.00;99924.72;5073102;28;20037;-65
2023/05/11 14:41:13;;;;;;;2.47;1.17;;;;;;;17.71;59.56;99930.84;5073484;28;20036;-65
2023/05/11 14:43:38;;;;;;;1.50;1.23;;;;;;;17.69;58.50;99931.09;5073418;28;20030;-65
2023/05/11 14:46:04;;;;;;;1.52;1.10;;;;;;;17.70;58.41;99924.66;5073162;28;20135;-65
2023/05/11 14:48:29;;;;;;;1.52;1.30;;;;;;;17.95;57.92;99929.13;5073073;28;20112;-65
2023/05/11 14:50:56;;;;;;;1.50;1.00;;;;;;;17.72;60.01;99919.06;5073164;28;20044;-65
2023/05/11 14:53:22;;;;;;;1.63;1.20;;;;;;;17.55;61.66;99916.97;5073265;28;20457;-65
2023/05/11 14:55:47;;;;;;;1.08;0.98;;;;;;;17.37;57.94;99911.59;5071879;28;20067;-65
2023/05/11 14:58:12;;;;;;;1.90;1.10;;;;;;;17.15;59.69;99918.47;5072838;28;20079;-64
2023/05/11 15:00:39;;;;;;;1.77;1.00;;;;;;;17.28;59.80;99923.72;5055221;28;20048;-64
2023/05/11 15:03:09;;;;;;;1.05;0.90;;;;;;;17.03;60.00;99910.34;5073053;28;20090;-66
2023/05/11 15:05:36;;;;;;;1.95;1.20;;;;;;;17.05;59.30;99909.06;5072096;28;20040;-64
2023/05/11 15:08:01;;;;;;;1.75;1.38;;;;;;;17.17;59.96;99913.72;5072574;28;20027;-64
2023/05/11 15:10:26;;;;;;;1.58;1.05;;;;;;;17.01;58.98;99910.53;5072827;28;20040;-64
2023/05/11 15:12:52;;;;;;;1.30;1.10;;;;;;;17.19;60.77;99912.44;5072694;28;20031;-64
2023/05/11 15:15:18;;;;;;;1.45;0.90;;;;;;;17.33;59.16;99908.53;5072730;28;20040;-64
2023/05/11 15:17:43;;;;;;;3.45;1.10;;;;;;;17.33;60.15;99911.22;5072307;28;20040;-64
2023/05/11 15:20:09;;;;;;;1.30;1.00;;;;;;;17.25;60.57;99910.72;5072614;28;20040;-64
2023/05/11 15:22:34;;;;;;;2.10;1.10;;;;;;;17.28;60.45;99919.16;5072618;28;20036;-64
2023/05/11 15:25:00;;;;;;;1.17;1.08;;;;;;;17.33;60.22;99915.78;5072620;28;20161;-65
2023/05/11 15:27:25;;;;;;;0.80;0.80;;;;;;;17.11;58.85;99909.22;5072193;28;20037;-65
2023/05/11 15:29:51;;;;;;;1.80;1.25;;;;;;;17.30;59.27;99908.16;5072369;28;20028;-65
2023/05/11 15:32:17;;;;;;;2.47;1.00;;;;;;;17.24;60.81;99915.28;5072470;28;20550;-65
2023/05/11 15:34:42;;;;;;;1.73;1.10;;;;;;;17.41;60.55;99914.66;5072526;28;20034;-66
2023/05/11 15:37:10;;;;;;;0.88;0.88;;;;;;;17.28;56.42;99912.97;5072068;28;20120;-67
2023/05/11 15:39:37;;;;;;;1.00;0.90;;;;;;;16.85;55.94;99919.22;5072419;28;20047;-65
2023/05/11 15:42:03;;;;;;;1.38;1.17;;;;;;;17.16;58.38;99914.75;5072336;28;20032;-66
2023/05/11 15:44:29;;;;;;;2.05;1.05;;;;;;;17.05;57.18;99919.81;5072257;28;20047;-72
2023/05/11 15:46:55;;;;;;;1.10;0.90;;;;;;;17.09;57.93;99915.66;5070804;28;20040;-60
2023/05/11 15:49:21;;;;;;;1.50;1.25;;;;;;;17.13;55.81;99921.38;5072140;28;20036;-55